Time;durP1;ratioP1;P1;durP2;ratioP2;P2;SDS_P1;SDS_P2;PMS_P1;PMS_P2;Temp;Humidity;BMP_temperature;BMP_pressure;BME280_temperature;BME280_humidity;BME280_pressure;Samples;Min_cycle;Max_cycle;Signal;HPM_P1;HPM_P2
2022/11/17 00:00:26;;;;;;;23.80;17.08;;;8.20;99.90;;;;;;5052066;28;20374;-62
2022/11/17 00:02:52;;;;;;;26.42;16.17;;;8.20;99.90;;;;;;5055367;28;20119;-61
2022/11/17 00:05:18;;;;;;;24.38;16.27;;;8.30;99.90;;;;;;5072018;28;20475;-61
2022/11/17 00:07:44;;;;;;;21.83;15.60;;;8.20;99.90;;;;;;5070556;28;20098;-61
2022/11/17 00:10:11;;;;;;;21.13;15.40;;;8.20;99.90;;;;;;5070407;28;20052;-61
2022/11/17 00:15:21;;;;;;;20.58;14.63;;;8.10;99.90;;;;;;5071826;28;20055;-60
2022/11/17 00:21:17;;;;;;;21.20;14.68;;;8.20;99.90;;;;;;5071862;28;20123;-61
2022/11/17 00:23:24;;;;;;;20.40;14.45;;;8.20;99.90;;;;;;5071882;28;20037;-61
2022/11/17 00:25:50;;;;;;;20.25;14.88;;;8.20;99.90;;;;;;5070403;28;20040;-61
2022/11/17 00:28:16;;;;;;;22.98;14.25;;;8.20;99.90;;;;;;5071861;28;20047;-61
2022/11/17 00:36:10;;;;;;;18.15;14.05;;;8.20;99.90;;;;;;5075815;28;20132;-61
2022/11/17 00:38:36;;;;;;;24.00;14.20;;;8.10;99.90;;;;;;5075679;28;20129;-61
2022/11/17 00:41:01;;;;;;;19.17;14.57;;;8.30;99.90;;;;;;5074434;28;20126;-62
2022/11/17 00:43:28;;;;;;;23.20;13.88;;;8.20;99.90;;;;;;5075361;28;20499;-61
2022/11/17 00:45:53;;;;;;;19.50;13.25;;;8.10;99.90;;;;;;5075065;28;20564;-61
2022/11/17 00:48:19;;;;;;;19.40;13.90;;;8.10;99.90;;;;;;5075148;28;20113;-62
2022/11/17 00:50:45;;;;;;;19.63;13.27;;;8.10;99.90;;;;;;5075471;28;20048;-61
2022/11/17 00:53:10;;;;;;;17.73;12.70;;;8.20;99.90;;;;;;5074346;28;20076;-61
2022/11/17 00:55:36;;;;;;;17.02;13.50;;;8.10;99.90;;;;;;5075355;28;20040;-62
2022/11/17 00:58:01;;;;;;;19.15;13.95;;;8.20;99.90;;;;;;5066934;28;20036;-61
2022/11/17 01:00:27;;;;;;;18.52;12.82;;;8.20;99.90;;;;;;5076514;28;20032;-62
2022/11/17 01:02:53;;;;;;;18.38;13.70;;;8.10;99.90;;;;;;5078297;28;20438;-63
2022/11/17 01:05:18;;;;;;;18.70;13.00;;;8.20;99.90;;;;;;5074805;28;20037;-62
2022/11/17 01:07:45;;;;;;;17.55;13.50;;;8.20;99.90;;;;;;5075214;28;20391;-62
2022/11/17 01:10:11;;;;;;;18.55;12.63;;;8.20;99.90;;;;;;5074768;28;20557;-62
2022/11/17 01:12:37;;;;;;;17.10;12.43;;;8.20;99.90;;;;;;5073723;28;20048;-63
2022/11/17 01:15:03;;;;;;;17.88;12.60;;;8.10;99.90;;;;;;5074633;28;20499;-62
2022/11/17 01:17:28;;;;;;;18.00;12.48;;;8.10;99.90;;;;;;5074705;28;20046;-62
2022/11/17 01:19:54;;;;;;;20.65;12.20;;;8.20;99.90;;;;;;5074996;28;20101;-62
2022/11/17 01:22:20;;;;;;;16.60;11.60;;;8.20;99.90;;;;;;5074745;28;20099;-62
2022/11/17 01:24:45;;;;;;;19.25;12.80;;;8.10;99.90;;;;;;5073333;28;20071;-62
2022/11/17 01:27:11;;;;;;;14.93;11.77;;;8.00;99.90;;;;;;5074610;28;20044;-62
2022/11/17 01:29:37;;;;;;;17.85;12.50;;;8.00;99.90;;;;;;5074756;28;20044;-62
2022/11/17 01:32:02;;;;;;;18.05;12.38;;;8.10;99.90;;;;;;5074400;28;20051;-62
2022/11/17 01:34:28;;;;;;;17.95;12.52;;;7.90;99.90;;;;;;5074499;28;20043;-62
2022/11/17 01:39:38;;;;;;;18.27;12.15;;;8.10;99.90;;;;;;5074560;28;20120;-61
2022/11/17 01:42:12;;;;;;;18.75;12.90;;;7.90;99.90;;;;;;5074259;28;20459;-62
2022/11/17 01:44:59;;;;;;;16.85;12.15;;;7.90;99.90;;;;;;5072976;28;20048;-62
2022/11/17 01:47:34;;;;;;;17.98;12.57;;;7.90;99.90;;;;;;5072989;28;20056;-62
2022/11/17 01:50:05;;;;;;;16.95;12.18;;;8.00;99.90;;;;;;5074378;28;20044;-62
2022/11/17 01:52:33;;;;;;;17.80;12.48;;;8.00;99.90;;;;;;5074126;28;20115;-63
2022/11/17 01:54:59;;;;;;;18.08;12.80;;;8.00;99.90;;;;;;5073926;28;20082;-62
2022/11/17 01:57:33;;;;;;;18.65;11.95;;;8.00;99.90;;;;;;5066398;28;20068;-61
2022/11/17 02:00:09;;;;;;;16.88;12.45;;;7.90;99.90;;;;;;5054197;28;20033;-62
2022/11/17 02:02:37;;;;;;;16.92;12.63;;;8.00;99.90;;;;;;5052940;28;20115;-62
2022/11/17 02:05:20;;;;;;;17.77;13.18;;;7.80;99.90;;;;;;5053779;28;20036;-62
2022/11/17 02:07:49;;;;;;;16.70;12.73;;;7.90;99.90;;;;;;5054041;28;20100;-62
2022/11/17 02:10:15;;;;;;;17.77;12.68;;;7.80;99.90;;;;;;5053855;28;20374;-62
2022/11/17 02:12:42;;;;;;;17.08;12.80;;;7.90;99.90;;;;;;5052419;28;20052;-62
2022/11/17 02:15:08;;;;;;;19.77;12.90;;;7.80;99.90;;;;;;5053775;28;20040;-62
2022/11/17 02:17:42;;;;;;;17.50;13.45;;;7.80;99.90;;;;;;5052365;28;20037;-64
2022/11/17 02:20:24;;;;;;;17.38;13.15;;;7.80;99.90;;;;;;5053872;28;20032;-62
2022/11/17 02:23:20;;;;;;;18.30;12.55;;;7.90;99.90;;;;;;5053382;28;20132;-62
2022/11/17 02:26:01;;;;;;;20.38;12.35;;;7.80;99.90;;;;;;5053601;28;20083;-64
2022/11/17 02:28:33;;;;;;;18.13;12.48;;;7.80;99.90;;;;;;5053412;28;20128;-63
2022/11/17 02:31:17;;;;;;;;;;;7.80;99.90;;;;;;5053751;28;20045;-62
2022/11/17 02:34:04;;;;;;;18.13;11.80;;;7.90;99.90;;;;;;5053413;28;20028;-62
2022/11/17 02:36:34;;;;;;;16.35;11.80;;;7.90;99.90;;;;;;5053131;28;20512;-63
2022/11/17 02:39:16;;;;;;;21.13;12.50;;;7.90;99.90;;;;;;5053379;28;20434;-63
2022/11/17 02:41:57;;;;;;;18.85;13.25;;;7.90;99.90;;;;;;5053395;28;20113;-62
2022/11/17 02:44:55;;;;;;;19.92;14.48;;;7.70;99.90;;;;;;5053061;28;20048;-62
2022/11/17 02:50:08;;;;;;;17.88;13.07;;;7.80;99.90;;;;;;5089712;27;20386;-60
2022/11/17 02:52:34;;;;;;;21.92;14.18;;;7.80;99.90;;;;;;5089629;28;20036;-62
2022/11/17 02:55:02;;;;;;;19.92;13.90;;;7.80;99.90;;;;;;5089677;28;20072;-59
2022/11/17 02:57:32;;;;;;;19.88;14.07;;;7.80;99.90;;;;;;5089655;28;20036;-61
2022/11/17 03:00:01;;;;;;;19.38;13.68;;;7.80;99.90;;;;;;5089822;28;20048;-62
2022/11/17 03:02:40;;;;;;;21.88;14.05;;;7.70;99.90;;;;;;5089574;28;20079;-62
2022/11/17 03:05:33;;;;;;;19.65;13.95;;;7.70;99.90;;;;;;5089396;28;20420;-62
2022/11/17 03:08:17;;;;;;;19.48;14.00;;;7.60;99.90;;;;;;5089499;28;20044;-62
2022/11/17 03:10:50;;;;;;;19.52;14.60;;;7.60;99.90;;;;;;5089496;28;20396;-62
2022/11/17 03:13:29;;;;;;;24.00;14.55;;;7.80;99.90;;;;;;5076219;28;20129;-62
2022/11/17 03:16:09;;;;;;;17.88;14.55;;;7.60;99.90;;;;;;5068902;28;20106;-61
2022/11/17 03:19:05;;;;;;;19.23;14.10;;;7.60;99.90;;;;;;5067813;28;20393;-61
2022/11/17 03:21:35;;;;;;;21.48;15.85;;;7.80;99.90;;;;;;5068933;28;20032;-62
2022/11/17 03:24:28;;;;;;;18.48;14.15;;;7.70;99.90;;;;;;5068756;28;20123;-62
2022/11/17 03:27:10;;;;;;;21.17;15.30;;;7.70;99.90;;;;;;5068681;28;20044;-62
2022/11/17 03:29:40;;;;;;;19.92;14.27;;;7.70;99.90;;;;;;5068726;28;20037;-62
2022/11/17 03:32:08;;;;;;;20.30;15.00;;;7.60;99.90;;;;;;5068676;28;20392;-63
2022/11/17 03:34:42;;;;;;;20.52;14.25;;;7.60;99.90;;;;;;5068648;28;20056;-63
2022/11/17 03:37:11;;;;;;;22.60;15.00;;;7.50;99.90;;;;;;5068481;28;20072;-62
2022/11/17 03:39:40;;;;;;;19.15;14.77;;;7.50;99.90;;;;;;5068760;28;20067;-62
2022/11/17 03:42:28;;;;;;;18.80;13.63;;;7.50;99.90;;;;;;5068328;28;20389;-62
2022/11/17 03:45:10;;;;;;;18.48;13.57;;;7.40;99.90;;;;;;5068542;28;20032;-62
2022/11/17 03:47:36;;;;;;;18.83;14.35;;;7.70;99.90;;;;;;5068157;28;20036;-61
2022/11/17 03:50:13;;;;;;;18.27;13.98;;;7.60;99.90;;;;;;5068448;28;20065;-62
2022/11/17 03:52:41;;;;;;;18.33;13.63;;;7.60;99.90;;;;;;5068202;28;20073;-63
2022/11/17 03:55:07;;;;;;;16.65;12.82;;;7.40;99.90;;;;;;5068025;28;20041;-62
2022/11/17 03:57:45;;;;;;;18.67;13.80;;;7.50;99.90;;;;;;5068170;28;20052;-63
2022/11/17 04:00:14;;;;;;;20.95;14.45;;;7.30;99.90;;;;;;5061931;28;20433;-63
2022/11/17 04:02:41;;;;;;;19.52;14.38;;;7.50;99.90;;;;;;5055329;28;20377;-63
2022/11/17 04:05:08;;;;;;;19.30;14.77;;;7.50;99.90;;;;;;5055459;28;20150;-62
2022/11/17 04:07:39;;;;;;;19.95;13.75;;;7.20;99.90;;;;;;5055072;28;20081;-62
2022/11/17 04:10:06;;;;;;;19.27;14.07;;;7.50;99.90;;;;;;5053402;28;20048;-62
2022/11/17 04:18:01;;;;;;;20.70;13.60;;;7.50;99.90;;;;;;5054556;28;20052;-62
2022/11/17 04:20:34;;;;;;;19.15;12.90;;;7.20;99.90;;;;;;5053486;28;20106;-62
2022/11/17 04:23:08;;;;;;;18.45;13.38;;;7.40;99.90;;;;;;5054354;28;20053;-62
2022/11/17 04:28:35;;;;;;;17.30;13.07;;;7.40;99.90;;;;;;5054237;28;20440;-62
2022/11/17 04:31:23;;;;;;;18.30;13.18;;;7.50;99.90;;;;;;5054166;28;20071;-61
2022/11/17 04:33:52;;;;;;;16.98;13.15;;;7.10;99.90;;;;;;5054247;28;20041;-61
2022/11/17 04:36:21;;;;;;;16.88;13.20;;;7.30;99.90;;;;;;5054432;28;20041;-61
2022/11/17 04:38:49;;;;;;;18.58;13.23;;;7.10;99.90;;;;;;5054479;28;20039;-61
2022/11/17 04:44:01;;;;;;;16.75;12.52;;;7.20;99.90;;;;;;5053219;28;20056;-62
2022/11/17 04:46:29;;;;;;;19.33;13.98;;;7.30;99.90;;;;;;5054048;28;20423;-62
2022/11/17 04:48:56;;;;;;;15.85;12.65;;;7.10;99.90;;;;;;5053595;28;20127;-62
2022/11/17 04:51:22;;;;;;;18.10;12.98;;;7.30;99.90;;;;;;5054229;28;20380;-63
2022/11/17 04:53:47;;;;;;;17.20;13.80;;;7.30;99.90;;;;;;5052610;28;20041;-62
2022/11/17 04:56:13;;;;;;;15.85;12.65;;;7.00;99.90;;;;;;5053767;28;20045;-64
2022/11/17 04:58:40;;;;;;;20.92;13.30;;;6.90;99.90;;;;;;5053761;28;20072;-64
2022/11/17 05:01:12;;;;;;;19.08;12.95;;;6.90;99.90;;;;;;5054035;28;20453;-63
2022/11/17 05:03:46;;;;;;;16.35;12.18;;;7.20;99.90;;;;;;5053924;28;20431;-62
2022/11/17 05:06:16;;;;;;;18.00;12.25;;;7.10;99.90;;;;;;5053718;28;20052;-62
2022/11/17 05:08:43;;;;;;;17.55;12.38;;;7.10;99.90;;;;;;5053450;28;20460;-63
2022/11/17 05:13:56;;;;;;;18.15;12.93;;;7.10;99.90;;;;;;5053505;28;20044;-62
2022/11/17 05:19:10;;;;;;;15.48;11.25;;;6.90;99.90;;;;;;5053507;28;20131;-63
2022/11/17 05:21:35;;;;;;;17.52;11.80;;;7.10;99.90;;;;;;5053422;28;20041;-62
2022/11/17 05:24:01;;;;;;;16.90;12.52;;;6.90;99.90;;;;;;5053333;28;20448;-62
2022/11/17 05:26:29;;;;;;;16.77;12.23;;;6.80;99.90;;;;;;5052087;28;20040;-62
2022/11/17 05:28:57;;;;;;;16.48;13.05;;;7.10;99.90;;;;;;5053283;28;20063;-62
2022/11/17 05:31:23;;;;;;;15.77;12.30;;;7.00;99.90;;;;;;5053148;28;20121;-61
2022/11/17 05:33:49;;;;;;;15.38;12.00;;;6.80;99.90;;;;;;5053309;28;20051;-62
2022/11/17 05:36:15;;;;;;;16.60;12.48;;;6.90;99.90;;;;;;5053326;28;20044;-62
2022/11/17 05:38:41;;;;;;;17.98;11.80;;;7.00;99.90;;;;;;5053025;28;20041;-62
2022/11/17 05:41:06;;;;;;;14.65;10.70;;;6.90;99.90;;;;;;5052915;28;20049;-61
2022/11/17 05:43:32;;;;;;;15.23;11.38;;;6.80;99.90;;;;;;5053131;28;20200;-61
2022/11/17 05:45:58;;;;;;;16.73;11.80;;;7.00;99.90;;;;;;5052765;28;20056;-62
2022/11/17 05:48:24;;;;;;;15.35;11.40;;;7.00;99.90;;;;;;5052519;28;20048;-61
2022/11/17 05:50:56;;;;;;;21.20;11.73;;;6.80;99.90;;;;;;5052846;28;20053;-61
2022/11/17 05:53:23;;;;;;;14.30;11.25;;;7.00;99.90;;;;;;5052704;28;20037;-61
2022/11/17 05:55:49;;;;;;;14.80;10.65;;;6.80;99.90;;;;;;5051361;28;20045;-62
2022/11/17 05:58:23;;;;;;;14.93;10.35;;;7.00;99.90;;;;;;5052599;28;20059;-62
2022/11/17 06:00:51;;;;;;;13.35;10.38;;;6.90;99.90;;;;;;5051074;28;20051;-62
2022/11/17 06:03:32;;;;;;;13.93;10.02;;;6.90;99.90;;;;;;5050422;28;20513;-61
2022/11/17 06:05:58;;;;;;;13.85;9.88;;;6.80;99.90;;;;;;5051737;28;20048;-62
2022/11/17 06:08:25;;;;;;;13.93;10.35;;;6.90;99.90;;;;;;5051548;28;20048;-62
2022/11/17 06:10:51;;;;;;;12.93;8.85;;;6.70;99.90;;;;;;5050321;28;20082;-62
2022/11/17 06:13:19;;;;;;;12.60;9.30;;;6.90;99.90;;;;;;5051389;28;20171;-61
2022/11/17 06:15:44;;;;;;;12.25;8.95;;;6.90;99.90;;;;;;5051251;28;20068;-61
2022/11/17 06:18:17;;;;;;;12.07;9.13;;;7.00;99.90;;;;;;5050937;28;20037;-61
2022/11/17 06:20:47;;;;;;;12.45;9.13;;;6.80;99.90;;;;;;5049941;28;20084;-61
2022/11/17 06:23:16;;;;;;;12.13;9.00;;;6.90;99.90;;;;;;5049274;28;20489;-61
2022/11/17 06:25:42;;;;;;;11.43;8.23;;;6.70;99.90;;;;;;5050645;28;20514;-61
2022/11/17 06:28:12;;;;;;;12.30;8.48;;;6.70;99.90;;;;;;5051189;28;20049;-61
2022/11/17 06:30:38;;;;;;;12.07;8.30;;;6.70;99.90;;;;;;5050176;28;20119;-61
2022/11/17 06:33:07;;;;;;;10.88;8.02;;;6.90;99.90;;;;;;5051571;28;20443;-62
2022/11/17 06:35:34;;;;;;;12.43;8.48;;;6.80;99.90;;;;;;5051232;28;20037;-61
2022/11/17 06:38:01;;;;;;;11.90;7.65;;;6.80;99.90;;;;;;5051227;28;20075;-61
2022/11/17 06:40:27;;;;;;;10.70;7.55;;;6.90;99.90;;;;;;5050952;28;20508;-61
2022/11/17 06:43:08;;;;;;;12.88;8.25;;;6.80;99.90;;;;;;5049705;28;20048;-61
2022/11/17 06:45:43;;;;;;;10.15;7.68;;;6.80;99.90;;;;;;5050936;28;20131;-61
2022/11/17 06:48:11;;;;;;;11.63;7.65;;;6.80;99.90;;;;;;5049545;28;20111;-62
2022/11/17 06:50:37;;;;;;;10.90;7.53;;;6.70;99.90;;;;;;5051105;28;20408;-62
2022/11/17 06:53:05;;;;;;;12.10;7.82;;;6.90;99.90;;;;;;5050146;28;20041;-62
2022/11/17 06:55:32;;;;;;;12.13;7.97;;;6.70;99.90;;;;;;5049534;28;20149;-62
2022/11/17 06:58:02;;;;;;;10.70;7.57;;;6.70;99.90;;;;;;5051022;28;20045;-62
2022/11/17 07:00:29;;;;;;;10.57;7.07;;;6.80;99.90;;;;;;5050984;28;20036;-61
2022/11/17 07:03:02;;;;;;;10.27;6.88;;;6.70;99.90;;;;;;5050840;28;20051;-62
2022/11/17 07:05:29;;;;;;;10.13;6.63;;;6.70;99.90;;;;;;5050575;28;20033;-61
2022/11/17 07:07:59;;;;;;;10.20;6.43;;;6.70;99.90;;;;;;5051334;28;20458;-65
2022/11/17 07:10:25;;;;;;;10.07;6.53;;;6.80;99.90;;;;;;5050693;28;20119;-61
2022/11/17 07:12:51;;;;;;;9.60;5.35;;;6.80;99.90;;;;;;5046615;28;20481;-61
2022/11/17 07:15:17;;;;;;;9.35;5.20;;;6.90;99.90;;;;;;5050084;28;20021;-61
2022/11/17 07:17:43;;;;;;;8.45;5.10;;;6.70;99.90;;;;;;5050213;28;20120;-62
2022/11/17 07:20:09;;;;;;;9.38;5.57;;;6.80;99.90;;;;;;5050532;28;20063;-61
2022/11/17 07:22:35;;;;;;;9.30;5.40;;;6.80;99.90;;;;;;5050209;28;20037;-62
2022/11/17 07:25:01;;;;;;;10.73;5.70;;;6.80;99.90;;;;;;5050728;28;20086;-61
2022/11/17 07:27:29;;;;;;;8.40;5.13;;;6.80;99.90;;;;;;5050652;28;20498;-61
2022/11/17 07:29:55;;;;;;;9.90;5.82;;;6.60;99.90;;;;;;5048879;28;20044;-61
2022/11/17 07:32:21;;;;;;;8.68;5.40;;;6.70;99.90;;;;;;5050787;28;20045;-61
2022/11/17 07:34:46;;;;;;;9.30;5.70;;;6.80;99.90;;;;;;5051351;28;20032;-61
2022/11/17 07:37:12;;;;;;;9.57;5.55;;;6.70;99.90;;;;;;5054595;28;20029;-61
2022/11/17 07:39:38;;;;;;;9.30;5.40;;;6.80;99.90;;;;;;5053043;28;20060;-62
2022/11/17 07:42:03;;;;;;;9.50;5.10;;;6.80;99.90;;;;;;5054514;28;20045;-62
2022/11/17 07:44:30;;;;;;;8.52;5.65;;;6.80;99.90;;;;;;5069699;28;20404;-62
2022/11/17 07:46:55;;;;;;;9.75;5.60;;;6.80;99.90;;;;;;5054265;28;20090;-61
2022/11/17 07:49:21;;;;;;;9.85;5.43;;;6.70;99.90;;;;;;5053819;28;20412;-62
2022/11/17 07:51:46;;;;;;;8.85;5.40;;;6.70;99.90;;;;;;5054046;28;20507;-62
2022/11/17 07:54:12;;;;;;;8.68;5.07;;;6.80;99.90;;;;;;5054034;28;20120;-62
2022/11/17 07:56:38;;;;;;;8.02;4.85;;;6.70;99.90;;;;;;5052877;28;20048;-61
2022/11/17 07:59:03;;;;;;;7.68;4.75;;;6.80;99.90;;;;;;5034479;28;20042;-61
2022/11/17 08:01:29;;;;;;;8.98;5.03;;;6.70;99.90;;;;;;5033778;28;20050;-61
2022/11/17 08:03:55;;;;;;;8.30;4.88;;;6.80;99.90;;;;;;5033724;28;20042;-61
2022/11/17 08:06:22;;;;;;;8.27;4.88;;;6.60;99.90;;;;;;5034024;28;20120;-62
2022/11/17 08:08:48;;;;;;;8.73;4.72;;;6.80;99.90;;;;;;5033811;28;20050;-62
2022/11/17 08:11:14;;;;;;;8.98;4.45;;;6.60;99.90;;;;;;5033446;28;20038;-64
2022/11/17 08:13:40;;;;;;;7.97;4.63;;;6.60;99.90;;;;;;5033194;28;20096;-62
2022/11/17 08:16:07;;;;;;;8.55;5.20;;;6.60;99.90;;;;;;5033651;28;20414;-63
2022/11/17 08:18:34;;;;;;;7.90;4.00;;;6.80;99.90;;;;;;5032405;28;20033;-63
2022/11/17 08:21:05;;;;;;;8.48;4.47;;;6.60;99.90;;;;;;5032612;28;20049;-62
2022/11/17 08:23:31;;;;;;;9.05;5.43;;;6.80;99.90;;;;;;5033699;28;20033;-62
2022/11/17 08:25:57;;;;;;;8.48;4.45;;;6.80;99.90;;;;;;5033653;28;20049;-64
2022/11/17 08:28:23;;;;;;;7.68;4.20;;;6.80;99.90;;;;;;5048856;28;20120;-62
2022/11/17 08:30:48;;;;;;;8.35;4.45;;;6.60;99.90;;;;;;5033184;28;20393;-62
2022/11/17 08:33:14;;;;;;;9.15;4.22;;;6.70;99.90;;;;;;5033621;28;20346;-63
2022/11/17 08:35:40;;;;;;;7.63;4.43;;;6.90;99.90;;;;;;5033608;28;20366;-62
2022/11/17 08:38:06;;;;;;;8.18;4.25;;;6.80;99.90;;;;;;5032864;28;20129;-62
2022/11/17 08:40:32;;;;;;;8.15;4.57;;;6.70;99.90;;;;;;5033055;28;20041;-62
2022/11/17 08:42:58;;;;;;;7.97;4.55;;;6.60;99.90;;;;;;5033178;28;20526;-61
2022/11/17 08:45:24;;;;;;;10.27;4.72;;;6.80;99.90;;;;;;5033404;28;20091;-63
2022/11/17 08:47:50;;;;;;;7.63;4.30;;;6.70;99.90;;;;;;5033243;28;20056;-62
2022/11/17 08:50:17;;;;;;;10.23;4.75;;;6.80;99.90;;;;;;5033154;28;20057;-62
2022/11/17 08:52:43;;;;;;;7.65;4.50;;;6.60;99.90;;;;;;5033426;28;20103;-62
2022/11/17 08:55:09;;;;;;;9.25;5.55;;;6.90;99.90;;;;;;5033469;28;20053;-62
2022/11/17 08:57:36;;;;;;;10.13;5.68;;;6.80;99.90;;;;;;5041413;28;20037;-62
2022/11/17 09:00:02;;;;;;;9.73;4.97;;;6.90;99.90;;;;;;5053252;28;20044;-62
2022/11/17 09:02:27;;;;;;;8.52;4.68;;;6.90;99.90;;;;;;5053150;28;20041;-62
2022/11/17 09:04:53;;;;;;;9.98;5.10;;;6.90;99.90;;;;;;5053021;28;20545;-62
2022/11/17 09:07:19;;;;;;;8.38;4.93;;;6.80;99.90;;;;;;5068404;28;20037;-63
2022/11/17 09:09:47;;;;;;;8.85;4.90;;;6.80;99.90;;;;;;5057202;28;20042;-62
2022/11/17 09:12:13;;;;;;;9.55;5.18;;;6.80;99.90;;;;;;5042384;28;20611;-62
2022/11/17 09:14:39;;;;;;;8.43;5.03;;;6.60;99.90;;;;;;5058300;28;20129;-62
2022/11/17 09:17:05;;;;;;;8.50;5.68;;;6.80;99.90;;;;;;5056716;28;20472;-62
2022/11/17 09:19:31;;;;;;;9.52;5.90;;;6.70;99.90;;;;;;5042743;28;20029;-62
2022/11/17 09:21:56;;;;;;;10.05;6.03;;;6.70;99.90;;;;;;5042510;28;20470;-62
2022/11/17 09:24:22;;;;;;;9.85;5.97;;;6.90;99.90;;;;;;5041322;28;20064;-62
2022/11/17 09:26:48;;;;;;;10.30;6.20;;;6.70;99.90;;;;;;5043258;28;20461;-62
2022/11/17 09:29:14;;;;;;;9.45;6.15;;;6.80;99.90;;;;;;5041833;28;20125;-63
2022/11/17 09:31:40;;;;;;;10.85;6.63;;;6.70;99.90;;;;;;5033364;28;20037;-62
2022/11/17 09:34:06;;;;;;;10.13;5.82;;;6.90;99.90;;;;;;5032389;28;20374;-62
2022/11/17 09:36:32;;;;;;;11.38;6.10;;;6.70;99.90;;;;;;5031858;28;20050;-62
2022/11/17 09:38:57;;;;;;;10.25;6.60;;;7.00;99.90;;;;;;5032080;28;20081;-62
2022/11/17 09:41:38;;;;;;;10.02;6.05;;;6.90;99.90;;;;;;5031781;28;20284;-62
2022/11/17 09:44:17;;;;;;;9.80;5.80;;;6.70;99.90;;;;;;5032406;28;20099;-62
2022/11/17 09:47:06;;;;;;;9.52;5.68;;;6.90;99.90;;;;;;5032481;28;20040;-62
2022/11/17 09:50:00;;;;;;;8.70;5.10;;;6.80;99.90;;;;;;5050082;28;20381;-62
2022/11/17 09:52:32;;;;;;;9.40;6.13;;;6.70;99.90;;;;;;5049631;28;20037;-62
2022/11/17 09:55:01;;;;;;;9.25;5.72;;;6.90;99.90;;;;;;5052121;28;20045;-62
2022/11/17 09:57:50;;;;;;;11.50;6.65;;;6.90;99.90;;;;;;5051628;28;20033;-62
2022/11/17 10:00:20;;;;;;;10.13;6.40;;;6.90;99.90;;;;;;5051740;28;20067;-63
2022/11/17 10:02:47;;;;;;;9.88;6.75;;;6.90;99.90;;;;;;5051429;28;20060;-63
2022/11/17 10:05:31;;;;;;;9.70;6.32;;;6.70;99.90;;;;;;5049240;28;20049;-63
2022/11/17 10:08:05;;;;;;;10.18;6.03;;;6.90;99.90;;;;;;5049402;28;20521;-63
2022/11/17 10:10:41;;;;;;;9.13;5.63;;;6.80;99.90;;;;;;5051296;28;20037;-62
2022/11/17 10:13:32;;;;;;;10.75;6.55;;;6.90;99.90;;;;;;5049297;28;20029;-62
2022/11/17 10:16:04;;;;;;;10.03;5.83;;;6.70;99.90;;;;;;5046359;28;20045;-62
2022/11/17 10:18:34;;;;;;;10.32;6.72;;;6.80;99.90;;;;;;5050707;28;20037;-62
2022/11/17 10:21:00;;;;;;;10.35;6.65;;;6.70;99.90;;;;;;5049060;28;20370;-63
2022/11/17 10:23:36;;;;;;;10.32;6.35;;;6.70;99.90;;;;;;5051278;28;20048;-63
2022/11/17 10:26:07;;;;;;;10.73;6.30;;;6.70;99.90;;;;;;5050572;28;20095;-62
2022/11/17 10:28:33;;;;;;;9.73;5.85;;;6.70;99.90;;;;;;5052134;28;20489;-62
2022/11/17 10:31:11;;;;;;;10.77;6.15;;;7.00;99.90;;;;;;5051803;28;20113;-62
2022/11/17 10:33:38;;;;;;;9.00;6.07;;;6.90;99.90;;;;;;5061238;28;20037;-62
2022/11/17 10:36:13;;;;;;;9.80;6.47;;;6.80;99.90;;;;;;5063887;28;20404;-62
2022/11/17 10:38:47;;;;;;;10.02;5.90;;;6.80;99.90;;;;;;5062939;28;20049;-62
2022/11/17 10:41:18;;;;;;;10.85;6.47;;;6.80;99.90;;;;;;5063988;28;20056;-61
2022/11/17 10:44:00;;;;;;;10.35;7.05;;;7.00;99.90;;;;;;5063774;28;20067;-62
2022/11/17 10:46:26;;;;;;;;;;;6.80;99.90;;;;;;5063288;28;20484;-60
2022/11/17 10:49:02;;;;;;;9.82;6.40;;;7.00;99.90;;;;;;5063002;28;19927;-60
2022/11/17 10:51:32;;;;;;;10.95;6.90;;;6.80;99.90;;;;;;5064876;28;20044;-60
2022/11/17 10:54:16;;;;;;;10.95;6.78;;;6.90;99.90;;;;;;5065496;28;20078;-60
2022/11/17 10:56:54;;;;;;;12.10;6.65;;;6.90;99.90;;;;;;5065008;28;20033;-60
2022/11/17 10:59:56;;;;;;;10.98;6.20;;;6.80;99.90;;;;;;5065608;28;20061;-60
2022/11/17 11:02:24;;;;;;;11.20;6.07;;;7.00;99.90;;;;;;5041695;28;20102;-58
2022/11/17 11:05:12;;;;;;;9.85;6.15;;;6.90;99.90;;;;;;5063768;28;20044;-60
2022/11/17 11:07:39;;;;;;;9.13;5.53;;;6.90;99.90;;;;;;5065020;28;20517;-60
2022/11/17 11:10:17;;;;;;;9.13;5.35;;;6.90;99.90;;;;;;5064464;28;20127;-60
2022/11/17 11:13:13;;;;;;;9.90;5.63;;;6.90;99.90;;;;;;5068679;28;20072;-62
2022/11/17 11:15:38;;;;;;;9.93;6.00;;;6.90;99.90;;;;;;5068003;28;20037;-64
2022/11/17 11:18:12;;;;;;;9.80;5.63;;;6.90;99.90;;;;;;5068979;28;20441;-64
2022/11/17 11:21:06;;;;;;;10.27;6.40;;;6.80;99.90;;;;;;5068011;28;20033;-64
2022/11/17 11:23:50;;;;;;;9.90;5.70;;;6.80;99.90;;;;;;5068207;28;20615;-61
2022/11/17 11:26:39;;;;;;;11.88;6.25;;;6.70;99.90;;;;;;5067076;28;20059;-61
2022/11/17 11:29:29;;;;;;;10.00;5.95;;;6.80;99.90;;;;;;5068351;28;20040;-61
2022/11/17 11:32:15;;;;;;;11.32;6.10;;;6.70;99.90;;;;;;5067900;28;20045;-61
2022/11/17 11:35:02;;;;;;;10.57;5.75;;;6.60;99.90;;;;;;5068985;28;20037;-61
2022/11/17 11:37:49;;;;;;;9.55;5.88;;;6.80;99.90;;;;;;5069712;28;20036;-61
2022/11/17 11:40:24;;;;;;;11.38;6.28;;;6.80;99.90;;;;;;5068812;28;20054;-61
2022/11/17 11:42:57;;;;;;;10.02;6.03;;;6.60;99.90;;;;;;5068446;28;20516;-61
2022/11/17 11:45:35;;;;;;;10.43;6.57;;;6.70;99.90;;;;;;5048520;28;20047;-61
2022/11/17 11:48:10;;;;;;;10.82;6.90;;;6.70;99.90;;;;;;5066707;28;20033;-61
2022/11/17 11:50:47;;;;;;;14.38;8.27;;;6.50;99.90;;;;;;5068394;28;21281;-61
2022/11/17 11:53:29;;;;;;;14.55;7.93;;;6.80;99.90;;;;;;5066405;28;20037;-61
2022/11/17 11:56:14;;;;;;;11.20;7.18;;;6.90;99.90;;;;;;5067767;28;20025;-61
2022/11/17 11:58:46;;;;;;;12.45;7.15;;;6.60;99.90;;;;;;5067689;28;20036;-61
2022/11/17 12:01:16;;;;;;;12.20;7.25;;;6.80;99.90;;;;;;5065703;28;20044;-61
2022/11/17 12:03:47;;;;;;;14.32;7.88;;;7.00;99.90;;;;;;5068690;28;20430;-61
2022/11/17 12:06:41;;;;;;;11.52;7.32;;;7.00;99.90;;;;;;5068977;28;20040;-61
2022/11/17 12:09:21;;;;;;;11.70;7.00;;;6.70;99.90;;;;;;5067585;28;20094;-61
2022/11/17 12:12:00;;;;;;;12.55;8.02;;;6.90;99.90;;;;;;5067582;28;20039;-61
2022/11/17 12:14:34;;;;;;;12.18;7.97;;;6.90;99.90;;;;;;5066881;28;20094;-61
2022/11/17 12:17:12;;;;;;;12.80;7.28;;;6.80;99.90;;;;;;5068831;28;20115;-61
2022/11/17 12:19:52;;;;;;;13.10;7.72;;;7.10;99.90;;;;;;5067669;28;20041;-61
2022/11/17 12:22:30;;;;;;;13.18;8.02;;;7.10;99.90;;;;;;5065945;28;20177;-61
2022/11/17 12:25:17;;;;;;;11.55;7.40;;;7.00;99.90;;;;;;5066401;28;20112;-61
2022/11/17 12:27:52;;;;;;;12.90;7.43;;;6.90;99.90;;;;;;5066351;28;20112;-61
2022/11/17 12:30:33;;;;;;;13.98;7.75;;;7.00;99.90;;;;;;5066342;28;20040;-61
2022/11/17 12:33:04;;;;;;;12.35;7.60;;;6.90;99.90;;;;;;5065782;28;20040;-59
2022/11/17 12:35:35;;;;;;;13.57;8.63;;;6.90;99.90;;;;;;5067177;28;21583;-59
2022/11/17 12:38:16;;;;;;;11.75;7.35;;;7.10;99.90;;;;;;5066489;28;20041;-59
2022/11/17 12:40:50;;;;;;;13.75;7.85;;;7.00;99.90;;;;;;5065478;28;20049;-59
2022/11/17 12:43:16;;;;;;;12.45;7.47;;;6.90;99.90;;;;;;5066083;28;20485;-59
2022/11/17 12:45:57;;;;;;;12.10;6.75;;;7.20;99.90;;;;;;5048822;28;20067;-59
2022/11/17 12:48:34;;;;;;;11.90;7.18;;;6.90;99.90;;;;;;5065613;28;20048;-59
2022/11/17 12:51:18;;;;;;;13.45;7.47;;;7.20;99.90;;;;;;5065517;28;20056;-59
2022/11/17 12:53:46;;;;;;;13.40;7.68;;;7.00;99.90;;;;;;5067871;28;20728;-59
2022/11/17 12:56:34;;;;;;;12.25;6.90;;;7.30;99.90;;;;;;5067512;28;20674;-59
2022/11/17 12:59:18;;;;;;;12.77;7.30;;;7.20;99.90;;;;;;5067399;28;20106;-58
2022/11/17 13:02:02;;;;;;;10.82;6.55;;;7.00;99.90;;;;;;5065800;28;20140;-59
2022/11/17 13:04:43;;;;;;;11.40;6.82;;;7.00;99.90;;;;;;5064910;28;20119;-59
2022/11/17 13:07:35;;;;;;;11.52;6.40;;;6.90;99.90;;;;;;5066724;28;20411;-59
2022/11/17 13:10:01;;;;;;;12.45;6.97;;;6.90;99.90;;;;;;5062921;28;20057;-60
2022/11/17 13:12:31;;;;;;;11.60;7.30;;;7.10;99.90;;;;;;5067278;28;20041;-57
2022/11/17 13:15:01;;;;;;;11.48;7.03;;;7.00;99.90;;;;;;5065258;28;20036;-60
2022/11/17 13:17:33;;;;;;;11.95;6.32;;;7.30;99.90;;;;;;5067140;28;20044;-59
2022/11/17 13:20:15;;;;;;;11.73;7.35;;;7.30;99.90;;;;;;5067259;28;20441;-58
2022/11/17 13:22:41;;;;;;;11.38;6.63;;;7.30;99.90;;;;;;5067077;28;20047;-59
2022/11/17 13:25:22;;;;;;;11.13;6.55;;;7.40;99.90;;;;;;5067130;28;20033;-59
2022/11/17 13:27:48;;;;;;;11.38;6.18;;;7.20;99.90;;;;;;5067073;28;20052;-58
2022/11/17 13:30:24;;;;;;;11.50;6.85;;;7.40;99.90;;;;;;5065535;28;20036;-59
2022/11/17 13:32:50;;;;;;;13.75;6.88;;;7.10;99.90;;;;;;5065667;28;20044;-59
2022/11/17 13:35:26;;;;;;;11.60;6.90;;;7.10;99.90;;;;;;5066868;28;20036;-59
2022/11/17 13:38:04;;;;;;;13.38;7.75;;;7.40;99.90;;;;;;5066832;28;20391;-59
2022/11/17 13:40:32;;;;;;;11.98;6.95;;;7.40;99.90;;;;;;5065585;28;20056;-59